createdAt,value
2022-09-18T00:01:37.869Z,61.44
2022-09-18T00:04:08.075Z,65.20
2022-09-18T00:06:39.253Z,64.02
2022-09-18T00:09:10.892Z,57.56
2022-09-18T00:11:49.395Z,54.79
2022-09-18T00:14:21.496Z,55.45
2022-09-18T00:16:50.862Z,57.08
2022-09-18T00:19:19.926Z,58.53
2022-09-18T00:21:50.597Z,59.90
2022-09-18T00:24:19.023Z,60.82
2022-09-18T00:26:48.087Z,64.44
2022-09-18T00:29:17.452Z,63.78
2022-09-18T00:31:45.731Z,58.01
2022-09-18T00:34:15.258Z,55.33
2022-09-18T00:36:43.981Z,56.09
2022-09-18T00:39:12.517Z,57.25
2022-09-18T00:41:42.629Z,58.71
2022-09-18T00:44:35.625Z,59.81
2022-09-18T00:47:09.716Z,61.09
2022-09-18T00:50:09.713Z,65.05
2022-09-18T00:52:48.813Z,63.36
2022-09-18T00:55:22.460Z,57.00
2022-09-18T00:57:56.785Z,55.31
2022-09-18T01:00:24.995Z,56.46
2022-09-18T01:02:53.858Z,57.78
2022-09-18T01:05:43.715Z,59.27
2022-09-18T01:08:26.438Z,60.48
2022-09-18T01:11:13.822Z,61.54
2022-09-18T01:13:44.616Z,65.48
2022-09-18T01:18:52.324Z,57.89
2022-09-18T01:21:44.486Z,56.37
2022-09-18T01:24:45.393Z,57.45
2022-09-18T01:27:29.338Z,59.02
2022-09-18T01:30:04.972Z,60.47
2022-09-18T01:32:46.255Z,61.45
2022-09-18T01:35:42.703Z,66.25
2022-09-18T01:38:21.746Z,63.56
2022-09-18T01:41:02.094Z,54.62
2022-09-18T01:43:32.051Z,52.76
2022-09-18T01:46:04.483Z,54.02
2022-09-18T01:48:45.162Z,55.72
2022-09-18T01:51:20.480Z,57.20
2022-09-18T01:54:03.999Z,58.69
2022-09-18T01:56:38.346Z,59.11
2022-09-18T01:59:13.248Z,60.24
2022-09-18T02:01:43.547Z,61.63
2022-09-18T02:04:16.613Z,66.31
2022-09-18T02:06:58.438Z,65.67
2022-09-18T02:09:27.560Z,57.92
2022-09-18T02:11:58.934Z,54.05
2022-09-18T02:14:38.751Z,55.00
2022-09-18T02:17:13.415Z,56.69
2022-09-18T02:19:51.045Z,58.39
2022-09-18T02:22:24.184Z,59.74
2022-09-18T02:24:55.655Z,61.21
2022-09-18T02:27:24.992Z,65.71
2022-09-18T02:29:54.063Z,64.17
2022-09-18T02:32:22.118Z,56.53
2022-09-18T02:34:50.739Z,54.13
2022-09-18T02:37:57.381Z,55.41
2022-09-18T02:40:31.643Z,56.70
2022-09-18T02:43:50.624Z,58.72
2022-09-18T02:46:49.940Z,60.43
2022-09-18T02:49:31.869Z,66.21
2022-09-18T02:52:09.757Z,63.09
2022-09-18T02:55:13.110Z,54.44
2022-09-18T02:57:51.068Z,53.04
2022-09-18T03:00:19.903Z,54.75
2022-09-18T03:02:50.257Z,56.60
2022-09-18T03:05:18.260Z,58.39
2022-09-18T03:07:46.242Z,60.03
2022-09-18T03:10:13.947Z,61.59
2022-09-18T03:12:41.765Z,66.17
2022-09-18T03:15:11.209Z,64.15
2022-09-18T03:17:38.956Z,56.43
2022-09-18T03:20:07.459Z,54.33
2022-09-18T03:22:35.409Z,55.79
2022-09-18T03:25:03.400Z,57.68
2022-09-18T03:27:31.308Z,59.32
2022-09-18T03:29:59.436Z,60.84
2022-09-18T03:32:27.159Z,65.11
2022-09-18T03:34:56.144Z,64.14
2022-09-18T03:37:24.377Z,56.39
2022-09-18T03:39:52.144Z,54.04
2022-09-18T03:42:20.493Z,55.41
2022-09-18T03:44:48.238Z,57.19
2022-09-18T03:47:16.556Z,59.18
2022-09-18T03:49:47.094Z,60.61
2022-09-18T03:52:14.934Z,64.76
2022-09-18T03:54:42.689Z,63.80
2022-09-18T03:57:10.746Z,56.58
2022-09-18T03:59:38.632Z,54.24
2022-09-18T04:02:06.358Z,55.51
2022-09-18T04:04:34.379Z,57.52
2022-09-18T04:07:02.482Z,59.12
2022-09-18T04:09:30.287Z,60.55
2022-09-18T04:11:58.052Z,64.86
2022-09-18T04:14:29.939Z,63.46
2022-09-18T04:16:58.054Z,56.14
2022-09-18T04:19:26.183Z,54.20
2022-09-18T04:21:54.267Z,55.61
2022-09-18T04:24:22.085Z,57.59
2022-09-18T04:26:50.234Z,59.05
2022-09-18T04:29:17.955Z,60.59
2022-09-18T04:31:45.907Z,64.87
2022-09-18T04:34:13.815Z,63.75
2022-09-18T04:36:41.589Z,56.58
2022-09-18T04:39:09.358Z,54.40
2022-09-18T04:41:37.176Z,55.67
2022-09-18T04:44:05.101Z,57.55
2022-09-18T04:46:33.626Z,58.73
2022-09-18T04:49:01.451Z,60.64
2022-09-18T04:51:29.206Z,64.71
2022-09-18T04:53:57.053Z,63.81
2022-09-18T04:56:24.984Z,56.90
2022-09-18T04:58:52.660Z,54.55
2022-09-18T05:01:20.535Z,55.87
2022-09-18T05:03:48.684Z,57.86
2022-09-18T05:06:16.486Z,59.46
2022-09-18T05:08:44.373Z,61.08
2022-09-18T05:11:12.300Z,65.37
2022-09-18T05:13:40.806Z,64.03
2022-09-18T05:16:09.101Z,57.13
2022-09-18T05:18:37.471Z,55.04
2022-09-18T05:21:06.454Z,56.58
2022-09-18T05:23:34.921Z,58.46
2022-09-18T05:26:03.235Z,60.15
2022-09-18T05:28:31.065Z,61.59
2022-09-18T05:31:01.894Z,65.95
2022-09-18T05:33:30.467Z,64.10
2022-09-18T05:35:58.666Z,57.53
2022-09-18T05:38:26.975Z,55.41
2022-09-18T05:40:54.779Z,56.93
2022-09-18T05:43:22.488Z,58.74
2022-09-18T05:45:50.271Z,60.33
2022-09-18T05:48:18.237Z,64.26
2022-09-18T05:50:46.185Z,63.92
2022-09-18T05:53:16.510Z,57.34
2022-09-18T05:55:44.244Z,55.31
2022-09-18T05:58:16.251Z,56.62
2022-09-18T06:00:44.972Z,58.27
2022-09-18T06:03:15.468Z,60.05
2022-09-18T06:05:51.035Z,61.66
2022-09-18T06:08:19.390Z,66.12
2022-09-18T06:10:47.513Z,63.95
2022-09-18T06:13:18.287Z,57.87
2022-09-18T06:15:48.226Z,56.16
2022-09-18T06:18:16.414Z,57.55
2022-09-18T06:20:51.250Z,59.12
2022-09-18T06:23:18.942Z,60.91
2022-09-18T06:25:46.736Z,64.73
2022-09-18T06:28:14.410Z,64.00
2022-09-18T06:30:42.299Z,57.02
2022-09-18T06:33:10.782Z,54.94
2022-09-18T06:35:38.703Z,56.40
2022-09-18T06:38:07.203Z,58.30
2022-09-18T06:40:35.805Z,60.08
2022-09-18T06:43:03.652Z,61.60
2022-09-18T06:45:31.654Z,65.61
2022-09-18T06:48:03.580Z,64.59
2022-09-18T06:50:31.898Z,58.92
2022-09-18T06:53:12.173Z,54.24
2022-09-18T06:55:40.562Z,55.25
2022-09-18T06:58:08.300Z,57.15
2022-09-18T07:00:36.221Z,58.83
2022-09-18T07:03:04.127Z,60.42
2022-09-18T07:05:32.672Z,63.48
2022-09-18T07:08:01.610Z,63.25
2022-09-18T07:10:29.397Z,57.51
2022-09-18T07:13:02.289Z,55.39
2022-09-18T07:15:30.898Z,56.05
2022-09-18T07:18:00.378Z,57.77
2022-09-18T07:20:29.566Z,58.94
2022-09-18T07:23:00.256Z,60.30
2022-09-18T07:25:31.413Z,61.23
2022-09-18T07:28:04.367Z,64.92
2022-09-18T07:30:32.146Z,63.19
2022-09-18T07:33:02.698Z,57.58
2022-09-18T07:35:30.790Z,54.46
2022-09-18T07:38:03.044Z,55.56
2022-09-18T07:40:31.393Z,56.68
2022-09-18T07:43:04.187Z,58.57
2022-09-18T07:45:32.448Z,60.40
2022-09-18T07:48:05.973Z,60.78
2022-09-18T07:50:34.266Z,64.23
2022-09-18T07:53:04.868Z,63.24
2022-09-18T07:55:35.517Z,56.78
2022-09-18T07:58:06.105Z,54.84
2022-09-18T08:00:37.085Z,56.22
2022-09-18T08:03:07.966Z,57.39
2022-09-18T08:05:36.214Z,58.84
2022-09-18T08:08:13.180Z,60.50
2022-09-18T08:10:43.300Z,61.36
2022-09-18T08:13:11.870Z,63.44
2022-09-18T08:15:42.180Z,61.56
2022-09-18T08:18:14.270Z,57.66
2022-09-18T08:20:43.293Z,56.66
2022-09-18T08:23:12.083Z,57.42
2022-09-18T08:25:42.274Z,58.89
2022-09-18T08:28:10.863Z,60.18
2022-09-18T08:30:38.719Z,60.73
2022-09-18T08:33:09.355Z,64.75
2022-09-18T08:35:37.434Z,63.57
2022-09-18T08:38:05.167Z,57.70
2022-09-18T08:40:42.326Z,55.96
2022-09-18T08:43:19.337Z,56.62
2022-09-18T08:46:02.726Z,57.93
2022-09-18T08:49:17.126Z,59.37
2022-09-18T08:52:01.741Z,60.28
2022-09-18T08:54:35.709Z,61.47
2022-09-18T08:57:16.073Z,63.86
2022-09-18T09:00:25.020Z,61.38
2022-09-18T09:03:04.466Z,56.55
2022-09-18T09:05:42.981Z,55.56
2022-09-18T09:08:28.873Z,57.22
2022-09-18T09:11:11.074Z,58.76
2022-09-18T09:13:53.162Z,59.91
2022-09-18T09:16:33.582Z,61.04
2022-09-18T09:19:46.292Z,61.42
2022-09-18T09:22:41.260Z,64.26
2022-09-18T09:25:44.604Z,60.60
2022-09-18T09:28:17.829Z,56.72
2022-09-18T09:30:51.983Z,55.70
2022-09-18T09:33:27.818Z,57.42
2022-09-18T09:35:59.478Z,58.57
2022-09-18T09:39:18.288Z,60.14
2022-09-18T09:42:07.665Z,62.05
2022-09-18T09:44:40.969Z,67.29
2022-09-18T09:47:21.336Z,64.84
2022-09-18T09:50:20.041Z,61.50
2022-09-18T09:52:47.848Z,57.53
2022-09-18T09:55:20.579Z,57.61
2022-09-18T09:57:57.554Z,58.60
2022-09-18T10:00:25.905Z,60.57
2022-09-18T10:03:21.904Z,64.75
2022-09-18T10:05:59.572Z,63.98
2022-09-18T10:08:43.142Z,59.24
2022-09-18T10:11:13.242Z,58.79
2022-09-18T10:13:43.973Z,61.35
2022-09-18T10:17:04.610Z,64.84
2022-09-18T10:19:39.925Z,60.30
2022-09-18T10:22:13.107Z,56.02
2022-09-18T10:25:01.860Z,55.97
2022-09-18T10:27:29.851Z,57.63
2022-09-18T10:29:57.714Z,58.84
2022-09-18T10:32:37.537Z,60.48
2022-09-18T10:35:30.206Z,61.18
2022-09-18T10:37:59.342Z,65.06
2022-09-18T10:40:29.955Z,62.02
2022-09-18T10:42:59.637Z,55.39
2022-09-18T10:45:30.303Z,54.22
2022-09-18T10:48:22.159Z,54.93
2022-09-18T10:51:00.478Z,56.57
2022-09-18T10:53:33.869Z,58.48
2022-09-18T10:56:15.029Z,59.32
2022-09-18T10:58:43.310Z,60.60
2022-09-18T11:01:13.268Z,61.36
2022-09-18T11:03:47.640Z,61.41
2022-09-18T11:06:23.924Z,62.11
2022-09-18T11:08:56.259Z,65.43
2022-09-18T11:11:30.997Z,62.54
2022-09-18T11:14:16.415Z,55.54
2022-09-18T11:16:49.651Z,54.07
2022-09-18T11:19:26.664Z,55.50
2022-09-18T11:21:56.750Z,56.43
2022-09-18T11:24:28.855Z,57.16
2022-09-18T11:27:01.850Z,57.96
2022-09-18T11:29:30.860Z,59.98
2022-09-18T11:32:05.242Z,61.02
2022-09-18T11:34:39.819Z,61.06
2022-09-18T11:37:14.081Z,61.64
2022-09-18T11:39:55.210Z,61.55
2022-09-18T11:42:23.242Z,61.51
2022-09-18T11:44:52.620Z,62.21
2022-09-18T11:47:34.746Z,60.34
2022-09-18T11:50:07.296Z,53.86
2022-09-18T11:52:40.821Z,55.06
2022-09-18T11:55:20.130Z,56.07
2022-09-18T11:58:02.168Z,57.49
2022-09-18T12:00:40.231Z,57.71
2022-09-18T12:03:19.215Z,58.85
2022-09-18T12:06:33.398Z,59.00
2022-09-18T12:09:35.720Z,58.72
2022-09-18T12:12:21.510Z,58.20
2022-09-18T12:15:17.140Z,58.69
2022-09-18T12:17:56.519Z,59.53
2022-09-18T12:20:48.131Z,59.39
2022-09-18T12:23:24.890Z,59.33
2022-09-18T12:26:18.505Z,59.66
2022-09-18T12:29:08.387Z,60.35
2022-09-18T12:31:51.262Z,61.31
2022-09-18T12:34:49.687Z,61.88
2022-09-18T12:37:39.576Z,60.69
2022-09-18T12:40:15.804Z,59.11
2022-09-18T12:43:18.955Z,60.80
2022-09-18T12:46:11.917Z,58.89
2022-09-18T12:49:06.378Z,60.02
2022-09-18T12:51:48.285Z,59.51
2022-09-18T12:54:28.173Z,59.50
2022-09-18T12:57:25.518Z,59.48
2022-09-18T13:00:13.939Z,59.04
2022-09-18T13:02:55.092Z,58.65
2022-09-18T13:05:54.321Z,58.73
2022-09-18T13:08:33.628Z,58.86
2022-09-18T13:11:08.264Z,59.11
2022-09-18T13:13:39.609Z,59.35
2022-09-18T13:16:32.112Z,59.14
2022-09-18T13:19:13.532Z,59.60
2022-09-18T13:21:44.613Z,59.90
2022-09-18T13:24:19.877Z,60.55
2022-09-18T13:26:49.842Z,60.83
2022-09-18T13:29:52.923Z,60.19
2022-09-18T13:32:35.217Z,60.13
2022-09-18T13:35:22.300Z,59.75
2022-09-18T13:38:04.883Z,60.59
2022-09-18T13:40:37.278Z,62.07
2022-09-18T13:43:30.715Z,64.91
2022-09-18T13:46:05.939Z,62.51
2022-09-18T13:48:40.808Z,53.31
2022-09-18T13:51:20.217Z,51.15
2022-09-18T13:54:10.912Z,51.27
2022-09-18T13:57:03.841Z,51.92
2022-09-18T13:59:58.586Z,52.39
2022-09-18T14:02:28.522Z,53.02
2022-09-18T14:05:00.807Z,53.31
2022-09-18T14:07:32.078Z,53.65
2022-09-18T14:10:04.633Z,52.89
2022-09-18T14:12:35.118Z,53.02
2022-09-18T14:15:23.565Z,53.12
2022-09-18T14:18:08.104Z,53.35
2022-09-18T14:20:36.036Z,54.52
2022-09-18T14:23:35.502Z,54.89
2022-09-18T14:26:08.710Z,55.86
2022-09-18T14:28:38.108Z,54.65
2022-09-18T14:31:14.925Z,54.77
2022-09-18T14:33:43.753Z,55.51
2022-09-18T14:36:14.622Z,53.37
2022-09-18T14:38:42.675Z,52.07
2022-09-18T14:41:30.318Z,53.10
2022-09-18T14:44:04.057Z,52.93
2022-09-18T14:46:33.187Z,53.60
2022-09-18T14:49:03.019Z,54.00
2022-09-18T14:51:44.723Z,54.12
2022-09-18T14:54:26.288Z,54.89
2022-09-18T14:56:58.911Z,55.40
2022-09-18T14:59:28.939Z,55.73
2022-09-18T15:02:28.100Z,55.70
2022-09-18T15:04:56.237Z,55.11
2022-09-18T15:07:24.669Z,55.17
2022-09-18T15:09:56.070Z,55.21
2022-09-18T15:12:26.366Z,55.02
2022-09-18T15:14:54.600Z,55.02
2022-09-18T15:17:28.254Z,55.08
2022-09-18T15:19:57.494Z,55.59
2022-09-18T15:22:27.375Z,55.89
2022-09-18T15:24:58.573Z,55.94
2022-09-18T15:27:26.910Z,56.16
2022-09-18T15:30:06.605Z,56.74
2022-09-18T15:32:39.073Z,57.17
2022-09-18T15:35:08.911Z,57.53
2022-09-18T15:37:38.474Z,57.52
2022-09-18T15:40:18.126Z,57.69
2022-09-18T15:42:59.682Z,59.45
2022-09-18T15:45:30.940Z,61.16
2022-09-18T15:48:01.035Z,66.35
2022-09-18T15:50:32.690Z,65.37
2022-09-18T15:53:18.066Z,53.60
2022-09-18T15:55:56.003Z,52.63
2022-09-18T15:58:32.257Z,55.31
2022-09-18T16:01:03.566Z,57.65
2022-09-18T16:03:32.291Z,59.12
2022-09-18T16:06:06.375Z,60.25
2022-09-18T16:08:38.645Z,61.54
2022-09-18T16:11:07.392Z,65.90
2022-09-18T16:13:39.498Z,64.07
2022-09-18T16:16:13.185Z,56.06
2022-09-18T16:19:03.350Z,53.43
2022-09-18T16:21:31.358Z,54.67
2022-09-18T16:24:01.395Z,56.25
2022-09-18T16:26:32.065Z,57.05
2022-09-18T16:29:18.753Z,58.52
2022-09-18T16:31:47.275Z,58.23
2022-09-18T16:34:25.925Z,59.11
2022-09-18T16:36:55.279Z,58.95
2022-09-18T16:39:25.654Z,59.71
2022-09-18T16:41:53.819Z,60.77
2022-09-18T16:44:21.587Z,64.54
2022-09-18T16:47:09.875Z,64.25
2022-09-18T16:49:46.777Z,56.60
2022-09-18T16:52:15.090Z,54.31
2022-09-18T16:54:43.401Z,55.30
2022-09-18T16:57:19.121Z,56.58
2022-09-18T16:59:49.651Z,57.96
2022-09-18T17:02:24.270Z,59.07
2022-09-18T17:04:53.576Z,60.14
2022-09-18T17:07:21.448Z,60.77
2022-09-18T17:09:49.231Z,61.68
2022-09-18T17:12:16.864Z,65.24
2022-09-18T17:14:44.629Z,64.78
2022-09-18T17:17:13.606Z,58.16
2022-09-18T17:19:41.488Z,54.78
2022-09-18T17:22:09.429Z,55.61
2022-09-18T17:24:37.743Z,56.94
2022-09-18T17:27:05.475Z,57.85
2022-09-18T17:29:33.459Z,58.78
2022-09-18T17:32:01.562Z,59.99
2022-09-18T17:34:29.408Z,61.36
2022-09-18T17:36:57.079Z,64.75
2022-09-18T17:39:25.089Z,63.88
2022-09-18T17:41:52.893Z,60.57
2022-09-18T17:44:20.722Z,54.40
2022-09-18T17:46:51.638Z,52.88
2022-09-18T17:49:20.250Z,53.77
2022-09-18T17:51:49.263Z,54.96
2022-09-18T17:54:17.210Z,56.24
2022-09-18T17:56:45.571Z,57.89
2022-09-18T17:59:14.263Z,58.75
2022-09-18T18:01:47.237Z,59.72
2022-09-18T18:04:15.494Z,60.48
2022-09-18T18:06:46.445Z,61.83
2022-09-18T18:09:15.269Z,65.40
2022-09-18T18:11:44.401Z,64.57
2022-09-18T18:14:13.423Z,57.94
2022-09-18T18:16:41.452Z,54.70
2022-09-18T18:19:13.939Z,55.69
2022-09-18T18:21:42.697Z,57.21
2022-09-18T18:24:15.071Z,58.51
2022-09-18T18:26:44.473Z,59.50
2022-09-18T18:29:15.380Z,60.39
2022-09-18T18:31:44.404Z,61.62
2022-09-18T18:34:12.346Z,65.70
2022-09-18T18:36:42.032Z,64.42
2022-09-18T18:39:12.618Z,57.56
2022-09-18T18:41:42.526Z,54.64
2022-09-18T18:44:11.528Z,55.50
2022-09-18T18:46:40.091Z,56.65
2022-09-18T18:49:11.027Z,57.62
2022-09-18T18:51:47.509Z,59.12
2022-09-18T18:54:17.437Z,60.15
2022-09-18T18:56:47.046Z,61.08
2022-09-18T18:59:17.591Z,64.54
2022-09-18T19:01:47.348Z,64.02
2022-09-18T19:04:19.150Z,59.08
2022-09-18T19:06:51.207Z,53.62
2022-09-18T19:09:21.537Z,53.67
2022-09-18T19:11:51.769Z,55.02
2022-09-18T19:14:29.034Z,56.49
2022-09-18T19:16:57.716Z,57.92
2022-09-18T19:19:28.260Z,59.17
2022-09-18T19:22:00.138Z,60.21
2022-09-18T19:24:28.574Z,61.21
2022-09-18T19:26:57.324Z,64.93
2022-09-18T19:29:25.000Z,64.10
2022-09-18T19:31:52.974Z,57.19
2022-09-18T19:34:22.210Z,54.46
2022-09-18T19:36:51.957Z,55.38
2022-09-18T19:39:23.885Z,56.77
2022-09-18T19:42:12.386Z,58.02
2022-09-18T19:44:54.735Z,59.35
2022-09-18T19:47:28.575Z,60.75
2022-09-18T19:49:58.513Z,64.67
2022-09-18T19:52:28.657Z,63.69
2022-09-18T19:54:59.011Z,57.14
2022-09-18T19:57:28.462Z,54.67
2022-09-18T19:59:57.413Z,55.65
2022-09-18T20:02:25.617Z,56.97
2022-09-18T20:04:53.761Z,58.30
2022-09-18T20:07:21.546Z,59.66
2022-09-18T20:09:49.379Z,60.82
2022-09-18T20:12:17.453Z,61.79
2022-09-18T20:14:45.288Z,65.41
2022-09-18T20:17:13.527Z,64.90
2022-09-18T20:19:41.429Z,60.62
2022-09-18T20:22:09.341Z,53.55
2022-09-18T20:24:37.093Z,52.23
2022-09-18T20:27:05.018Z,53.80
2022-09-18T20:29:33.679Z,55.29
2022-09-18T20:32:02.902Z,56.52
2022-09-18T20:34:30.718Z,57.94
2022-09-18T20:36:59.110Z,59.20
2022-09-18T20:39:27.408Z,60.11
2022-09-18T20:42:00.385Z,61.36
2022-09-18T20:44:28.592Z,65.28
2022-09-18T20:46:57.109Z,63.98
2022-09-18T20:49:25.849Z,57.62
2022-09-18T20:51:54.515Z,55.31
2022-09-18T20:54:22.895Z,56.30
2022-09-18T20:56:50.659Z,57.77
2022-09-18T20:59:19.376Z,59.05
2022-09-18T21:01:48.320Z,60.08
2022-09-18T21:04:19.551Z,61.13
2022-09-18T21:06:56.263Z,64.90
2022-09-18T21:09:26.579Z,63.86
2022-09-18T21:11:56.827Z,59.43
2022-09-18T21:14:25.635Z,54.81
2022-09-18T21:16:53.815Z,54.81
2022-09-18T21:19:21.769Z,56.10
2022-09-18T21:21:49.564Z,57.64
2022-09-18T21:24:17.605Z,59.13
2022-09-18T21:26:48.358Z,60.24
2022-09-18T21:29:26.182Z,61.42
2022-09-18T21:32:00.224Z,65.37
2022-09-18T21:34:31.294Z,64.36
2022-09-18T21:37:03.735Z,57.29
2022-09-18T21:39:32.764Z,54.81
2022-09-18T21:42:02.439Z,55.76
2022-09-18T21:44:31.914Z,57.33
2022-09-18T21:47:02.505Z,58.93
2022-09-18T21:49:32.032Z,60.22
2022-09-18T21:52:03.691Z,61.53
2022-09-18T21:54:32.201Z,65.51
2022-09-18T21:57:00.613Z,64.46
2022-09-18T21:59:31.127Z,57.56
2022-09-18T22:02:00.761Z,54.71
2022-09-18T22:04:32.218Z,55.86
2022-09-18T22:07:01.697Z,57.54
2022-09-18T22:09:38.230Z,58.91
2022-09-18T22:12:07.837Z,60.33
2022-09-18T22:14:38.301Z,61.43
2022-09-18T22:17:07.974Z,65.25
2022-09-18T22:19:40.588Z,63.98
2022-09-18T22:22:11.286Z,59.85
2022-09-18T22:24:39.299Z,55.25
2022-09-18T22:27:10.232Z,54.70
2022-09-18T22:29:39.704Z,56.20
2022-09-18T22:32:10.901Z,57.87
2022-09-18T22:34:39.074Z,59.18
2022-09-18T22:37:07.986Z,60.55
2022-09-18T22:39:35.772Z,61.47
2022-09-18T22:42:03.741Z,65.32
2022-09-18T22:44:31.629Z,64.42
2022-09-18T22:46:59.580Z,61.10
2022-09-18T22:49:27.692Z,57.97
2022-09-18T22:51:55.522Z,56.73
2022-09-18T22:54:26.879Z,58.08
2022-09-18T22:56:56.057Z,59.32
2022-09-18T22:59:26.712Z,60.71
2022-09-18T23:02:01.283Z,61.84
2022-09-18T23:04:31.736Z,65.72
2022-09-18T23:07:00.353Z,64.58
2022-09-18T23:09:29.518Z,61.10
2022-09-18T23:11:58.312Z,57.30
2022-09-18T23:14:29.003Z,56.65
2022-09-18T23:16:57.969Z,57.92
2022-09-18T23:19:28.240Z,59.45
2022-09-18T23:21:56.317Z,60.64
2022-09-18T23:24:24.839Z,61.84
2022-09-18T23:26:55.770Z,64.97
2022-09-18T23:29:24.917Z,64.82
2022-09-18T23:31:55.050Z,62.26
2022-09-18T23:34:27.777Z,59.63
2022-09-18T23:36:56.219Z,56.34
2022-09-18T23:39:30.144Z,55.73
2022-09-18T23:42:01.416Z,57.10
2022-09-18T23:44:31.343Z,58.66
2022-09-18T23:47:00.466Z,60.17
2022-09-18T23:49:29.067Z,61.64
2022-09-18T23:51:59.450Z,64.86
2022-09-18T23:54:29.988Z,64.74
2022-09-18T23:56:58.338Z,62.12
2022-09-18T23:59:26.886Z,59.93
